Time;durP1;ratioP1;P1;durP2;ratioP2;P2;SDS_P1;SDS_P2;PMS_P1;PMS_P2;Temp;Humidity;BMP_temperature;BMP_pressure;BME280_temperature;BME280_humidity;BME280_pressure;Samples;Min_cycle;Max_cycle;Signal;HPM_P1;HPM_P2
2023/03/13 00:01:17;;;;;;;5.10;2.90;;;;;;;14.69;94.09;100206.56;5064810;28;20043;-61
2023/03/13 00:03:44;;;;;;;7.03;2.50;;;;;;;14.51;95.79;100191.38;5067197;28;20040;-62
2023/03/13 00:06:12;;;;;;;6.10;2.75;;;;;;;14.64;94.64;100182.66;5076126;28;20056;-63
2023/03/13 00:08:39;;;;;;;7.38;2.80;;;;;;;14.51;95.17;100183.88;5058803;28;20056;-63
2023/03/13 00:11:09;;;;;;;6.80;2.70;;;;;;;14.59;95.61;100179.38;5067446;28;20048;-62
2023/03/13 00:13:36;;;;;;;3.95;2.20;;;;;;;14.53;95.95;100170.50;5058770;28;20049;-62
2023/03/13 00:16:11;;;;;;;8.48;3.00;;;;;;;14.48;96.42;100165.19;5064443;28;20048;-61
2023/03/13 00:18:47;;;;;;;6.00;2.35;;;;;;;14.60;95.48;100175.41;5076646;28;20060;-67
2023/03/13 00:21:15;;;;;;;8.88;2.67;;;;;;;14.61;95.76;100188.09;5069879;28;20053;-67
2023/03/13 00:23:43;;;;;;;5.60;2.70;;;;;;;14.60;94.78;100184.53;5078736;28;20048;-68
2023/03/13 00:26:12;;;;;;;6.30;2.53;;;;;;;14.68;94.60;100188.31;5064972;28;20507;-68
2023/03/13 00:28:40;;;;;;;5.38;2.22;;;;;;;14.77;94.54;100185.41;5060034;28;20416;-68
2023/03/13 00:31:18;;;;;;;9.35;2.65;;;;;;;14.72;94.19;100180.09;5063688;28;20045;-67
2023/03/13 00:33:51;;;;;;;5.47;2.42;;;;;;;14.44;96.21;100175.38;5077829;28;20072;-70
2023/03/13 00:36:20;;;;;;;5.43;2.10;;;;;;;14.90;93.60;100176.66;5075521;28;20126;-69
2023/03/13 00:38:48;;;;;;;4.87;2.30;;;;;;;14.70;94.18;100171.34;5057122;28;20053;-68
2023/03/13 00:41:17;;;;;;;6.35;2.50;;;;;;;14.60;94.28;100164.31;5062958;28;20389;-67
2023/03/13 00:43:45;;;;;;;5.15;2.20;;;;;;;14.46;95.33;100161.97;5075740;28;20048;-67
2023/03/13 00:46:15;;;;;;;5.63;2.42;;;;;;;14.72;95.35;100166.22;5075153;28;20044;-67
2023/03/13 00:48:43;;;;;;;5.70;2.28;;;;;;;14.81;94.03;100169.66;5056914;28;20053;-67
2023/03/13 00:51:13;;;;;;;5.18;2.20;;;;;;;14.75;94.14;100184.94;5064419;28;20067;-68
2023/03/13 00:53:41;;;;;;;7.60;2.70;;;;;;;14.47;95.54;100160.00;5057805;28;20063;-68
2023/03/13 00:56:11;;;;;;;6.80;2.63;;;;;;;14.59;95.12;100171.84;5044868;28;20052;-69
2023/03/13 00:58:41;;;;;;;3.45;1.90;;;;;;;14.62;94.49;100184.19;5055434;28;20056;-69
2023/03/13 01:01:13;;;;;;;6.37;2.07;;;;;;;14.66;94.55;100196.19;5064118;28;20048;-68
2023/03/13 01:03:43;;;;;;;8.80;2.80;;;;;;;14.68;94.28;100182.75;5076766;28;20060;-68
2023/03/13 01:06:13;;;;;;;6.50;2.55;;;;;;;14.87;93.27;100185.66;5076150;28;20467;-70
2023/03/13 01:08:41;;;;;;;5.72;2.58;;;;;;;14.70;93.59;100179.66;5074101;28;20056;-69
2023/03/13 01:11:09;;;;;;;6.00;2.63;;;;;;;14.86;92.88;100172.97;5074699;28;20049;-68
2023/03/13 01:13:37;;;;;;;10.05;3.05;;;;;;;14.85;91.90;100160.28;5077122;28;20045;-68
2023/03/13 01:16:16;;;;;;;7.63;2.97;;;;;;;15.03;91.17;100156.00;5075131;28;20056;-68
2023/03/13 01:18:46;;;;;;;10.23;2.70;;;;;;;15.01;90.61;100152.78;5075810;28;20048;-68
2023/03/13 01:21:14;;;;;;;7.55;2.63;;;;;;;14.94;90.75;100135.94;5074251;28;20040;-68
2023/03/13 01:23:41;;;;;;;11.65;2.70;;;;;;;14.90;90.68;100139.78;5076821;28;20059;-68
2023/03/13 01:26:09;;;;;;;10.10;3.17;;;;;;;15.14;89.08;100121.03;5074950;28;20056;-68
2023/03/13 01:28:37;;;;;;;10.57;3.03;;;;;;;14.77;90.58;100113.31;5059132;28;20060;-68
2023/03/13 01:31:17;;;;;;;10.10;3.58;;;;;;;14.79;90.84;100113.75;5088863;28;20048;-68
2023/03/13 01:33:45;;;;;;;;;;;;;;;14.95;89.98;100136.75;5072445;28;20065;-67
2023/03/13 01:36:15;;;;;;;8.35;3.30;;;;;;;14.73;90.21;100129.03;5065413;28;19931;-68
2023/03/13 01:38:43;;;;;;;7.85;2.80;;;;;;;14.68;90.76;100124.53;5077435;28;20059;-68
2023/03/13 01:41:11;;;;;;;10.60;3.33;;;;;;;14.72;90.71;100128.22;5056709;28;20045;-68
2023/03/13 01:43:39;;;;;;;9.85;3.22;;;;;;;14.58;91.29;100119.53;5073717;28;20061;-68
2023/03/13 01:46:07;;;;;;;13.20;3.50;;;;;;;14.62;91.04;100114.91;5072187;28;20060;-68
2023/03/13 01:49:04;;;;;;;9.30;3.83;;;;;;;14.80;90.01;100121.72;5072167;28;20067;-68
2023/03/13 01:51:46;;;;;;;13.82;3.40;;;;;;;14.74;89.48;100102.91;5090452;28;20049;-68
2023/03/13 01:54:27;;;;;;;11.85;3.47;;;;;;;14.77;89.81;100082.81;5074814;28;20051;-68
2023/03/13 01:57:02;;;;;;;13.30;4.10;;;;;;;14.70;89.49;100075.09;5056325;28;20057;-69
2023/03/13 01:59:32;;;;;;;14.02;4.50;;;;;;;14.72;89.50;100072.78;5051108;28;20174;-67
2023/03/13 02:02:01;;;;;;;12.68;4.18;;;;;;;14.68;89.88;100069.09;5073543;28;20063;-68
2023/03/13 02:04:34;;;;;;;13.98;4.28;;;;;;;14.81;88.59;100067.88;5067396;28;20045;-67
2023/03/13 02:07:05;;;;;;;10.07;3.65;;;;;;;14.55;89.28;100073.13;5069025;28;20403;-67
2023/03/13 02:09:34;;;;;;;12.20;3.55;;;;;;;14.55;90.15;100075.91;5051309;28;20040;-68
2023/03/13 02:12:10;;;;;;;13.65;4.00;;;;;;;14.75;88.23;100063.75;5073143;28;20054;-67
2023/03/13 02:14:41;;;;;;;14.00;3.70;;;;;;;14.97;87.45;100059.56;5064144;28;20045;-67
2023/03/13 02:17:09;;;;;;;10.45;3.35;;;;;;;15.00;86.23;100065.19;5053184;28;20056;-69
2023/03/13 02:19:45;;;;;;;11.95;3.88;;;;;;;14.72;88.17;100061.69;5047095;28;20048;-69
2023/03/13 02:22:21;;;;;;;11.68;3.55;;;;;;;14.61;88.56;100066.16;5055321;28;20530;-69
2023/03/13 02:24:51;;;;;;;13.40;3.75;;;;;;;14.75;88.06;100055.44;5060215;28;20057;-67
2023/03/13 02:27:18;;;;;;;14.43;3.83;;;;;;;14.72;87.27;100045.06;5069709;28;20546;-68
2023/03/13 02:29:46;;;;;;;13.75;3.90;;;;;;;14.53;88.22;100043.00;5062529;28;20385;-68
2023/03/13 02:32:14;;;;;;;13.25;3.38;;;;;;;14.83;87.57;100028.69;5070319;28;20041;-68
2023/03/13 02:34:43;;;;;;;14.48;3.78;;;;;;;14.77;87.42;100030.94;5067589;28;20044;-67
2023/03/13 02:37:12;;;;;;;15.13;4.20;;;;;;;14.82;87.21;100024.31;5053781;28;20056;-68
2023/03/13 02:39:46;;;;;;;13.55;4.07;;;;;;;14.81;86.50;100031.03;5056548;28;20147;-68
2023/03/13 02:42:14;;;;;;;14.20;4.03;;;;;;;14.90;86.57;100032.47;5051813;28;20049;-68
2023/03/13 02:44:43;;;;;;;10.38;3.88;;;;;;;14.84;86.53;100039.44;5058285;28;20534;-68
2023/03/13 02:47:16;;;;;;;11.25;3.33;;;;;;;14.72;87.42;100044.25;5072708;28;20048;-68
2023/03/13 02:49:43;;;;;;;10.90;3.50;;;;;;;14.43;88.80;100042.72;5063505;28;20049;-70
2023/03/13 02:52:37;;;;;;;15.48;3.75;;;;;;;14.53;88.00;100034.69;5073421;28;20499;-69
2023/03/13 02:55:09;;;;;;;11.85;3.83;;;;;;;14.49;89.20;100030.19;5088058;28;20385;-69
2023/03/13 02:57:37;;;;;;;17.40;4.75;;;;;;;14.48;88.94;100023.06;5069020;28;20049;-67
2023/03/13 03:00:06;;;;;;;13.10;3.90;;;;;;;14.61;89.05;100013.47;5085440;28;20160;-68
2023/03/13 03:02:33;;;;;;;14.52;3.55;;;;;;;14.64;88.42;100010.03;5038821;28;20045;-68
2023/03/13 03:05:01;;;;;;;11.73;3.90;;;;;;;14.67;87.70;100006.53;5063916;28;20049;-68
2023/03/13 03:07:28;;;;;;;14.57;4.40;;;;;;;14.62;88.13;100017.88;5073220;28;20051;-69
2023/03/13 03:09:56;;;;;;;11.90;3.90;;;;;;;14.53;88.16;100006.97;5072860;28;20526;-68
2023/03/13 03:12:23;;;;;;;11.88;4.28;;;;;;;14.72;87.94;99999.91;5061048;28;20457;-67
2023/03/13 03:14:51;;;;;;;10.25;3.50;;;;;;;14.72;87.24;100010.97;5056510;28;20101;-67
2023/03/13 03:17:19;;;;;;;13.15;3.50;;;;;;;14.76;87.22;100007.16;5075475;28;20048;-68
2023/03/13 03:19:46;;;;;;;14.18;4.20;;;;;;;14.70;87.42;100007.78;5077311;28;20059;-67
2023/03/13 03:22:14;;;;;;;10.65;3.35;;;;;;;14.55;87.85;99996.34;5077590;28;20049;-67
2023/03/13 03:24:41;;;;;;;18.67;4.43;;;;;;;14.67;87.69;100003.75;5074526;28;20044;-67
2023/03/13 03:27:08;;;;;;;11.82;3.72;;;;;;;14.63;87.51;99992.56;5066009;28;20069;-67
2023/03/13 03:29:41;;;;;;;14.02;4.30;;;;;;;14.78;86.62;99996.50;5074178;28;20049;-68
2023/03/13 03:32:09;;;;;;;12.75;3.88;;;;;;;14.68;87.48;100002.56;5056277;28;20049;-68
2023/03/13 03:34:37;;;;;;;13.20;4.28;;;;;;;14.77;87.14;100002.44;5057915;28;20053;-68
2023/03/13 03:37:04;;;;;;;13.50;4.32;;;;;;;14.88;86.12;100009.81;5073364;28;20044;-68
2023/03/13 03:39:31;;;;;;;11.90;3.78;;;;;;;14.73;86.21;100005.09;5076006;28;20053;-68
2023/03/13 03:41:59;;;;;;;12.43;3.90;;;;;;;14.65;87.29;100011.63;5054689;28;20056;-67
2023/03/13 03:44:27;;;;;;;13.98;4.47;;;;;;;14.78;86.20;99992.94;5076272;28;20051;-68
2023/03/13 03:46:57;;;;;;;12.15;4.20;;;;;;;15.23;83.23;100007.91;5053808;28;20049;-69
2023/03/13 03:49:26;;;;;;;11.53;3.43;;;;;;;14.91;85.35;100014.66;5057898;28;20045;-67
2023/03/13 03:51:54;;;;;;;11.80;3.30;;;;;;;15.29;83.19;100006.44;5070320;28;20071;-67
2023/03/13 03:54:28;;;;;;;12.10;4.10;;;;;;;15.22;82.73;100009.06;5058040;28;20049;-68
2023/03/13 03:56:55;;;;;;;14.75;3.88;;;;;;;14.88;84.74;99992.38;5069919;28;20044;-68
2023/03/13 03:59:23;;;;;;;14.43;4.47;;;;;;;14.75;85.43;99990.88;5065209;28;20503;-68
2023/03/13 04:02:00;;;;;;;11.75;4.28;;;;;;;14.71;85.30;99987.22;5075005;28;20048;-69
2023/03/13 04:04:29;;;;;;;12.40;3.97;;;;;;;14.73;85.58;99977.38;5046966;28;20048;-68
2023/03/13 04:07:04;;;;;;;12.30;4.57;;;;;;;14.65;85.44;99989.44;5051429;28;20064;-68
2023/03/13 04:09:32;;;;;;;13.68;4.22;;;;;;;14.73;85.80;99984.88;5061312;28;20503;-67
2023/03/13 04:12:02;;;;;;;11.95;3.83;;;;;;;15.19;83.55;99992.31;5058160;28;20423;-68
2023/03/13 04:14:33;;;;;;;15.20;4.47;;;;;;;15.04;83.50;99984.84;5073486;28;20071;-68
2023/03/13 04:17:04;;;;;;;10.88;4.20;;;;;;;14.96;83.86;99981.09;5065514;28;20049;-68
2023/03/13 04:19:31;;;;;;;14.02;4.20;;;;;;;15.14;83.24;99979.53;5068934;28;20059;-68
2023/03/13 04:21:59;;;;;;;9.25;3.60;;;;;;;15.24;82.84;99967.06;5057392;28;20064;-68
2023/03/13 04:24:27;;;;;;;14.48;4.18;;;;;;;15.01;83.08;99980.81;5064994;28;20144;-68
2023/03/13 04:26:56;;;;;;;12.95;4.55;;;;;;;14.77;84.76;99977.47;5054027;28;20054;-68
2023/03/13 04:29:23;;;;;;;15.57;3.83;;;;;;;14.80;85.13;99977.56;5076791;28;20079;-68
2023/03/13 04:32:01;;;;;;;16.25;4.35;;;;;;;15.00;84.13;99979.22;5072890;28;20056;-67
2023/03/13 04:34:58;;;;;;;19.95;4.72;;;;;;;14.74;84.74;99972.63;5077844;28;20060;-67
2023/03/13 04:37:36;;;;;;;13.50;3.88;;;;;;;14.36;87.36;99981.56;5075189;28;20471;-68
2023/03/13 04:40:24;;;;;;;21.83;4.97;;;;;;;14.34;88.11;99978.34;5075141;28;20057;-68
2023/03/13 04:43:04;;;;;;;16.33;4.45;;;;;;;14.45;87.39;99982.22;5076138;28;20059;-68
2023/03/13 04:45:32;;;;;;;17.08;4.53;;;;;;;14.53;87.18;99984.00;5073670;28;20059;-67
2023/03/13 04:48:13;;;;;;;16.63;4.38;;;;;;;14.48;87.29;99971.22;5076737;28;20064;-67
2023/03/13 04:50:52;;;;;;;14.70;4.50;;;;;;;14.57;87.33;99977.38;5066710;28;20053;-67
2023/03/13 04:53:35;;;;;;;12.13;4.25;;;;;;;14.56;86.66;99986.84;5070317;28;20041;-67
2023/03/13 04:56:23;;;;;;;14.77;4.70;;;;;;;14.57;87.58;99995.97;5072010;28;20052;-68
2023/03/13 04:59:30;;;;;;;19.00;4.85;;;;;;;14.90;85.30;99996.41;5061630;28;20365;-68
2023/03/13 05:02:05;;;;;;;12.98;4.10;;;;;;;14.64;85.72;99979.53;5058341;28;20049;-68
2023/03/13 05:04:39;;;;;;;12.68;5.03;;;;;;;14.48;87.01;99982.31;5058701;28;20041;-68
2023/03/13 05:07:23;;;;;;;13.98;4.65;;;;;;;14.74;86.79;99975.41;5051928;28;20049;-62
2023/03/13 05:09:50;;;;;;;13.45;4.25;;;;;;;14.65;86.22;99970.84;5076870;28;20044;-62
2023/03/13 05:12:37;;;;;;;16.48;4.45;;;;;;;14.60;87.01;99964.78;5064717;28;20032;-62
2023/03/13 05:15:27;;;;;;;13.80;4.72;;;;;;;14.54;86.17;99966.19;5042038;28;20053;-61
2023/03/13 05:18:10;;;;;;;15.40;4.47;;;;;;;14.47;87.17;99968.81;5058643;28;20045;-61
2023/03/13 05:20:57;;;;;;;14.18;4.60;;;;;;;14.26;87.80;99974.59;5061785;28;20044;-61
2023/03/13 05:23:51;;;;;;;13.38;4.53;;;;;;;14.31;88.33;99968.00;5070767;28;20064;-61
2023/03/13 05:26:53;;;;;;;15.63;4.40;;;;;;;14.33;87.98;99955.38;5055217;28;20064;-62
2023/03/13 05:29:33;;;;;;;;;;;;;;;14.62;86.37;99943.84;5058283;28;20060;-63
2023/03/13 05:32:18;;;;;;;12.63;4.50;;;;;;;14.38;86.89;99948.78;5054229;28;20027;-61
2023/03/13 05:35:03;;;;;;;16.30;4.50;;;;;;;14.50;87.25;99934.84;5056886;28;20056;-63
2023/03/13 05:38:03;;;;;;;11.57;4.32;;;;;;;14.39;86.91;99944.84;5061802;28;20071;-62
2023/03/13 05:40:46;;;;;;;12.07;4.65;;;;;;;14.49;86.93;99953.41;5057791;28;20052;-61
2023/03/13 05:43:29;;;;;;;9.38;3.88;;;;;;;14.42;86.80;99953.25;5069283;28;20048;-62
2023/03/13 05:46:02;;;;;;;13.20;4.47;;;;;;;14.39;87.19;99964.22;5065137;28;20455;-62
2023/03/13 05:48:57;;;;;;;15.57;4.50;;;;;;;14.61;86.79;99955.28;5037440;28;20047;-63
2023/03/13 05:51:28;;;;;;;13.60;4.30;;;;;;;14.89;85.43;99949.63;5061503;28;20051;-63
2023/03/13 05:54:14;;;;;;;11.00;4.50;;;;;;;14.56;86.32;99959.13;5070243;28;20044;-62
2023/03/13 05:56:53;;;;;;;15.88;4.47;;;;;;;14.63;85.72;99952.97;5066459;28;20044;-63
2023/03/13 05:59:32;;;;;;;12.63;4.57;;;;;;;14.36;87.34;99959.41;5059838;28;20068;-62
2023/03/13 06:02:24;;;;;;;18.20;4.72;;;;;;;14.53;87.05;99943.22;5070536;28;20056;-61
2023/03/13 06:04:51;;;;;;;12.48;4.70;;;;;;;14.58;86.60;99944.91;5050658;28;20049;-62
2023/03/13 06:07:19;;;;;;;11.48;4.60;;;;;;;14.52;86.26;99941.59;5065879;28;20507;-62
2023/03/13 06:09:47;;;;;;;12.15;4.32;;;;;;;14.42;87.17;99938.56;5066550;28;20408;-62
2023/03/13 06:12:14;;;;;;;10.88;4.32;;;;;;;14.42;87.44;99924.72;5061569;28;20056;-63
2023/03/13 06:14:42;;;;;;;13.68;4.53;;;;;;;14.52;87.57;99936.06;5059308;28;20072;-61
2023/03/13 06:17:21;;;;;;;16.88;4.78;;;;;;;14.37;88.66;99925.81;5048123;28;20045;-62
2023/03/13 06:19:49;;;;;;;10.93;3.95;;;;;;;14.44;88.16;99939.84;5057133;28;20049;-62
2023/03/13 06:22:17;;;;;;;16.60;5.85;;;;;;;14.38;88.95;99940.47;5065937;28;20045;-62
2023/03/13 06:24:45;;;;;;;10.05;4.28;;;;;;;14.33;89.71;99944.28;5058261;28;20040;-62
2023/03/13 06:27:12;;;;;;;15.57;5.93;;;;;;;14.31;90.59;99931.97;5067493;28;20048;-62
2023/03/13 06:29:40;;;;;;;12.48;4.53;;;;;;;14.20;91.20;99931.66;5071599;28;20056;-61
2023/03/13 06:32:07;;;;;;;9.35;4.63;;;;;;;14.24;90.83;99927.00;5069052;28;20435;-63
2023/03/13 06:34:35;;;;;;;10.10;4.60;;;;;;;14.33;90.63;99924.13;5070416;28;20477;-63
2023/03/13 06:37:03;;;;;;;13.40;5.03;;;;;;;14.32;90.26;99922.50;5071223;28;20484;-66
2023/03/13 06:39:30;;;;;;;11.02;4.70;;;;;;;14.30;90.03;99922.84;5074549;28;20100;-64
2023/03/13 06:41:57;;;;;;;12.93;4.85;;;;;;;14.36;89.89;99915.91;5068818;28;20063;-63
2023/03/13 06:44:25;;;;;;;10.82;4.45;;;;;;;14.18;91.01;99924.88;5054478;28;20057;-62
2023/03/13 06:46:52;;;;;;;9.90;4.10;;;;;;;14.19;91.44;99923.72;5071904;28;20060;-62
2023/03/13 06:49:19;;;;;;;10.82;4.53;;;;;;;14.17;91.94;99917.72;5074653;28;20053;-63
2023/03/13 06:51:47;;;;;;;16.83;5.00;;;;;;;14.10;92.95;99912.81;5074174;28;20044;-62
2023/03/13 06:54:14;;;;;;;15.60;4.95;;;;;;;14.07;92.98;99899.66;5074212;28;20053;-63
2023/03/13 06:56:42;;;;;;;15.85;5.00;;;;;;;14.15;92.56;99903.44;5069432;28;20056;-62
2023/03/13 06:59:09;;;;;;;11.43;4.18;;;;;;;13.97;93.27;99900.19;5078106;28;20067;-63
2023/03/13 07:01:36;;;;;;;11.52;4.53;;;;;;;14.24;92.06;99904.06;5071624;28;20052;-62
2023/03/13 07:04:04;;;;;;;11.02;4.15;;;;;;;14.22;91.47;99906.38;5056898;28;20063;-62
2023/03/13 07:06:31;;;;;;;9.73;4.20;;;;;;;14.23;91.66;99906.03;5071936;28;20060;-63
2023/03/13 07:08:58;;;;;;;14.10;4.88;;;;;;;14.21;92.00;99899.25;5075964;28;20404;-62
2023/03/13 07:11:26;;;;;;;10.95;4.82;;;;;;;14.27;91.14;99895.88;5070695;28;20071;-62
2023/03/13 07:13:55;;;;;;;17.08;7.95;;;;;;;14.36;90.71;99906.78;5070328;28;20045;-64
2023/03/13 07:16:39;;;;;;;10.80;4.70;;;;;;;14.40;90.78;99904.91;5068350;28;20060;-62
2023/03/13 07:19:08;;;;;;;11.50;4.35;;;;;;;14.45;90.61;99896.31;5065572;28;20056;-63
2023/03/13 07:21:35;;;;;;;13.13;5.28;;;;;;;14.49;90.16;99902.72;5070203;28;20422;-64
2023/03/13 07:24:03;;;;;;;12.65;4.88;;;;;;;14.55;89.74;99898.53;5061735;28;20525;-63
2023/03/13 07:26:30;;;;;;;8.82;4.20;;;;;;;14.44;89.83;99897.47;5063402;28;20045;-63
2023/03/13 07:28:57;;;;;;;12.25;4.07;;;;;;;14.67;89.14;99892.88;5077288;28;20061;-63
2023/03/13 07:31:25;;;;;;;14.07;4.68;;;;;;;14.51;88.83;99892.09;5067419;28;22033;-62
2023/03/13 07:33:55;;;;;;;9.93;3.97;;;;;;;14.54;89.35;99896.91;5067780;28;20048;-62
2023/03/13 07:36:23;;;;;;;10.60;4.07;;;;;;;14.42;89.64;99886.75;5075728;28;20053;-63
2023/03/13 07:38:51;;;;;;;12.82;7.07;;;;;;;14.54;89.38;99883.03;5053793;28;20049;-62
2023/03/13 07:41:19;;;;;;;14.68;4.75;;;;;;;14.56;89.48;99876.00;5067306;28;20059;-62
2023/03/13 07:43:46;;;;;;;16.08;4.63;;;;;;;14.66;88.45;99882.97;5075034;28;20079;-62
2023/03/13 07:46:17;;;;;;;12.95;4.78;;;;;;;14.81;88.24;99862.72;5076497;28;20052;-64
2023/03/13 07:48:45;;;;;;;13.85;4.30;;;;;;;14.74;88.20;99870.88;5064052;28;20048;-62
2023/03/13 07:51:15;;;;;;;14.30;4.93;;;;;;;14.80;87.79;99869.44;5068376;28;20348;-63
2023/03/13 07:53:43;;;;;;;12.27;4.18;;;;;;;14.68;89.34;99860.44;5061396;28;20058;-62
2023/03/13 07:56:13;;;;;;;11.65;4.03;;;;;;;14.68;89.64;99866.75;5077063;28;20048;-62
2023/03/13 07:58:41;;;;;;;9.02;4.38;;;;;;;14.72;89.94;99852.97;5076521;28;20067;-62
2023/03/13 08:01:10;;;;;;;8.07;4.20;;;;;;;14.68;89.87;99852.88;5066179;28;20049;-61
2023/03/13 08:03:38;;;;;;;12.70;3.95;;;;;;;14.60;89.90;99853.91;5074881;28;20052;-61
2023/03/13 08:06:10;;;;;;;15.20;4.70;;;;;;;14.62;89.47;99840.50;5082342;28;20052;-62
2023/03/13 08:08:38;;;;;;;8.00;3.83;;;;;;;14.74;88.97;99847.88;5076785;28;20044;-61
2023/03/13 08:11:16;;;;;;;12.05;4.07;;;;;;;14.80;88.65;99847.25;5069335;28;20131;-63
2023/03/13 08:13:44;;;;;;;9.13;3.58;;;;;;;14.91;87.77;99848.28;5058457;28;20044;-64
2023/03/13 08:16:17;;;;;;;8.63;3.95;;;;;;;14.92;87.06;99847.13;5061314;28;20395;-64
2023/03/13 08:18:47;;;;;;;10.45;3.75;;;;;;;15.20;87.48;99842.16;5059980;28;20048;-64
2023/03/13 08:21:15;;;;;;;;;;;;;;;15.45;85.19;99831.56;5072406;28;20048;-63
2023/03/13 08:23:43;;;;;;;16.48;3.42;;;;;;;15.76;85.03;99829.41;5074245;28;19920;-37
2023/03/13 08:26:12;;;;;;;9.88;4.07;;;;;;;16.70;78.05;99826.59;5073405;28;20411;-68
2023/03/13 08:28:40;;;;;;;8.65;3.80;;;;;;;16.73;76.99;99820.28;5067197;28;20056;-65
2023/03/13 08:31:13;;;;;;;5.78;2.88;;;;;;;17.18;74.88;99810.13;5071748;28;20059;-64
2023/03/13 08:33:41;;;;;;;8.98;3.47;;;;;;;17.30;74.80;99813.47;5063240;28;20051;-64
2023/03/13 08:36:19;;;;;;;6.70;2.80;;;;;;;17.20;75.10;99814.16;5068640;28;20056;-63
2023/03/13 08:38:47;;;;;;;7.93;2.45;;;;;;;18.10;71.10;99809.91;5069146;28;20057;-64
2023/03/13 08:41:19;;;;;;;7.53;2.90;;;;;;;18.35;69.38;99804.53;5075666;28;20049;-65
2023/03/13 08:43:47;;;;;;;7.55;2.60;;;;;;;18.35;69.91;99813.72;5071037;28;20071;-64
2023/03/13 08:46:14;;;;;;;10.68;2.83;;;;;;;18.42;68.96;99813.00;5065486;28;20052;-64
2023/03/13 08:48:51;;;;;;;10.35;2.40;;;;;;;17.97;70.46;99803.84;5066731;28;20400;-64
2023/03/13 08:51:20;;;;;;;7.28;2.78;;;;;;;17.89;70.19;99793.81;5061236;28;20060;-64
2023/03/13 08:53:48;;;;;;;7.70;2.85;;;;;;;17.57;70.81;99798.28;5060124;28;20396;-64
2023/03/13 08:56:19;;;;;;;7.20;3.10;;;;;;;17.28;72.67;99793.56;5066825;28;20093;-64
2023/03/13 08:58:51;;;;;;;7.80;2.85;;;;;;;16.81;73.66;99794.16;5056899;28;20158;-65
2023/03/13 09:01:20;;;;;;;13.07;3.75;;;;;;;16.64;75.60;99782.81;5060492;28;20061;-66
2023/03/13 09:03:51;;;;;;;8.52;3.08;;;;;;;16.85;75.81;99781.13;5065214;28;20535;-70
2023/03/13 09:06:18;;;;;;;8.43;3.03;;;;;;;17.28;74.65;99778.81;5051259;28;20095;-66
2023/03/13 09:08:46;;;;;;;9.05;2.63;;;;;;;17.27;74.29;99775.25;5062218;28;20060;-65
2023/03/13 09:11:18;;;;;;;8.73;3.13;;;;;;;17.22;74.51;99770.03;5064404;28;20045;-66
2023/03/13 09:13:48;;;;;;;6.85;2.88;;;;;;;16.91;76.70;99764.91;5073532;28;20057;-66
2023/03/13 09:16:23;;;;;;;6.43;3.08;;;;;;;16.85;78.05;99763.63;5071504;28;20264;-66
2023/03/13 09:18:51;;;;;;;7.45;3.10;;;;;;;16.97;78.37;99757.81;5070675;28;20053;-65
2023/03/13 09:21:21;;;;;;;9.18;3.00;;;;;;;17.48;75.87;99746.88;5066936;28;20060;-67
2023/03/13 09:23:51;;;;;;;7.68;3.47;;;;;;;17.11;77.21;99734.91;5061640;28;20057;-65
2023/03/13 09:26:19;;;;;;;11.13;3.80;;;;;;;16.79;78.42;99721.44;5061186;28;20048;-65
2023/03/13 09:28:50;;;;;;;10.55;3.40;;;;;;;16.76;78.91;99733.31;5079372;28;20049;-66
2023/03/13 09:31:21;;;;;;;8.98;3.20;;;;;;;16.60;78.89;99718.81;5063336;28;20052;-64
2023/03/13 09:33:49;;;;;;;8.63;3.17;;;;;;;16.73;78.41;99713.81;5081093;28;20045;-65
2023/03/13 09:36:18;;;;;;;8.55;3.42;;;;;;;16.85;80.36;99728.28;5063548;28;20515;-64
2023/03/13 09:38:53;;;;;;;8.20;3.53;;;;;;;16.69;79.01;99716.53;5063601;28;20049;-64
2023/03/13 09:41:48;;;;;;;7.85;3.40;;;;;;;16.91;78.19;99716.81;5068469;28;20427;-63
2023/03/13 09:44:22;;;;;;;8.82;2.90;;;;;;;16.79;77.06;99723.41;5059174;28;20044;-65
2023/03/13 09:46:53;;;;;;;7.85;2.67;;;;;;;16.92;78.32;99719.22;5047048;28;20053;-64
2023/03/13 09:49:29;;;;;;;12.38;2.55;;;;;;;17.28;77.38;99712.84;5055117;28;20072;-65
2023/03/13 09:52:10;;;;;;;8.75;2.50;;;;;;;17.64;74.89;99705.66;5064089;28;20049;-66
2023/03/13 09:54:41;;;;;;;9.40;2.90;;;;;;;17.29;75.95;99691.38;5067519;28;20487;-66
2023/03/13 09:57:23;;;;;;;7.80;2.55;;;;;;;17.52;75.98;99706.72;5062244;28;20498;-65
2023/03/13 09:59:57;;;;;;;4.82;2.20;;;;;;;17.42;75.60;99701.84;5068731;28;20076;-65
2023/03/13 10:02:31;;;;;;;7.75;2.38;;;;;;;17.72;75.52;99702.53;5058478;28;20380;-64
2023/03/13 10:05:21;;;;;;;5.82;2.20;;;;;;;17.34;75.97;99702.97;5046751;28;20051;-64
2023/03/13 10:07:49;;;;;;;9.05;2.38;;;;;;;17.07;76.96;99695.13;5062228;28;20399;-66
2023/03/13 10:10:20;;;;;;;10.63;3.72;;;;;;;17.45;76.60;99689.94;5064622;28;20526;-64
2023/03/13 10:12:51;;;;;;;6.63;2.60;;;;;;;17.57;75.58;99709.16;5071703;28;20048;-65
2023/03/13 10:15:51;;;;;;;6.43;2.65;;;;;;;17.42;74.85;99690.72;5063245;28;20056;-64
2023/03/13 10:18:22;;;;;;;5.80;2.35;;;;;;;17.29;75.95;99702.50;5066392;28;20056;-65
2023/03/13 10:20:52;;;;;;;7.15;2.20;;;;;;;17.37;74.45;99679.94;5061105;28;20071;-66
2023/03/13 10:23:39;;;;;;;9.80;2.58;;;;;;;17.10;75.49;99683.22;5050164;28;20060;-66
2023/03/13 10:26:14;;;;;;;16.15;2.70;;;;;;;17.24;74.60;99673.06;5056342;28;20052;-68
2023/03/13 10:28:42;;;;;;;7.70;2.00;;;;;;;17.37;73.76;99679.13;5033245;28;20067;-66
2023/03/13 10:31:16;;;;;;;8.07;2.28;;;;;;;17.76;73.12;99669.97;5071519;28;20044;-68
2023/03/13 10:33:45;;;;;;;5.72;2.00;;;;;;;18.08;71.47;99658.22;5059394;28;20376;-65
2023/03/13 10:36:14;;;;;;;;;;;;;;;17.82;71.95;99660.03;5065370;28;20458;-65
2023/03/13 10:38:52;;;;;;;6.75;2.60;;;;;;;18.02;71.23;99651.41;5057167;28;20295;-65
2023/03/13 10:41:29;;;;;;;6.05;2.33;;;;;;;18.15;71.62;99649.91;5062877;28;20059;-65
2023/03/13 10:44:13;;;;;;;6.72;2.13;;;;;;;18.26;70.49;99648.75;5065172;28;20055;-66
2023/03/13 10:46:43;;;;;;;9.20;2.40;;;;;;;18.30;70.44;99652.38;5049387;28;20055;-64
2023/03/13 10:49:18;;;;;;;10.00;2.25;;;;;;;18.34;70.03;99646.81;5057075;28;20057;-66
2023/03/13 10:51:54;;;;;;;9.10;3.40;;;;;;;18.35;68.30;99632.47;5060196;28;20052;-66
2023/03/13 10:54:26;;;;;;;15.35;5.32;;;;;;;18.09;69.66;99634.72;5057125;28;20051;-66
2023/03/13 10:57:29;;;;;;;9.55;2.70;;;;;;;17.94;69.31;99620.72;5046000;28;20049;-66
2023/03/13 10:59:57;;;;;;;6.65;2.17;;;;;;;17.73;69.38;99622.59;5060299;28;20051;-64
2023/03/13 11:02:37;;;;;;;6.90;1.98;;;;;;;18.14;70.55;99600.91;5061676;28;20512;-65
2023/03/13 11:05:36;;;;;;;5.80;1.90;;;;;;;18.55;68.52;99611.47;5049020;28;20423;-67
2023/03/13 11:08:16;;;;;;;8.25;2.10;;;;;;;19.04;66.62;99605.19;5064881;28;20060;-66
2023/03/13 11:11:04;;;;;;;7.82;2.10;;;;;;;18.82;66.79;99609.16;5059979;28;20059;-65
2023/03/13 11:13:42;;;;;;;5.85;2.22;;;;;;;18.76;67.25;99616.31;5059060;28;20045;-66
2023/03/13 11:16:19;;;;;;;7.07;2.22;;;;;;;19.03;65.00;99623.97;5070117;28;20052;-65
2023/03/13 11:19:13;;;;;;;9.77;2.15;;;;;;;18.92;67.23;99628.72;5066975;28;20051;-67
2023/03/13 11:22:23;;;;;;;9.27;2.33;;;;;;;18.48;65.11;99632.97;5062851;28;20068;-66
2023/03/13 11:25:12;;;;;;;10.98;2.67;;;;;;;18.80;65.93;99620.72;5050943;28;20057;-66
2023/03/13 11:27:57;;;;;;;5.22;1.88;;;;;;;18.98;66.55;99613.19;5067461;28;20048;-66
2023/03/13 11:30:40;;;;;;;7.13;2.08;;;;;;;18.90;63.79;99617.16;5055331;28;20040;-68
2023/03/13 11:33:22;;;;;;;13.95;5.80;;;;;;;18.79;62.78;99613.53;5072369;28;20052;-65
2023/03/13 11:36:01;;;;;;;17.95;6.80;;;;;;;18.43;63.20;99613.84;5067767;28;20063;-64
2023/03/13 11:38:35;;;;;;;16.67;7.68;;;;;;;18.44;66.13;99607.06;5064636;28;20045;-64
2023/03/13 11:41:15;;;;;;;19.52;8.63;;;;;;;18.67;63.68;99618.69;5040975;28;20048;-64
2023/03/13 11:43:54;;;;;;;22.88;9.30;;;;;;;18.34;63.30;99616.16;5071035;28;20056;-63
2023/03/13 11:46:55;;;;;;;17.77;7.93;;;;;;;18.35;65.15;99601.00;5056122;28;20049;-65
2023/03/13 11:49:33;;;;;;;15.05;8.10;;;;;;;18.34;63.15;99611.34;5060238;28;20045;-64
2023/03/13 11:52:07;;;;;;;19.98;9.38;;;;;;;18.49;63.44;99613.06;5060861;28;20526;-65
2023/03/13 11:54:44;;;;;;;16.35;7.07;;;;;;;17.89;60.76;99618.28;5068343;28;20504;-65